PWSweather.com
Personal Weather Stations
Station Observations

Acton, CA 93510

Lat: 34.47703, Lon: -118.17483

Elevation: 2900

Station Type: Davis Vantage Pro 2

http://www.actonastro.com/weather/current.php

High Low Average
Temperature 68.6°F20.3°F 37.5°F3.1°F 51.8°F11.0°F
Dew Point 22.1°F-5.5°F 1.0°F-17.2°F 9.8°F-12.3°F
Winds 14.0 mph E22.5 mph E Calm Calm 3.6 mph 5.8 mph
Wind Gusts 19.0 mph30.6 mph -- 8.1 mph13.0 mph
Humidity 44% 9% 20%
Pressure 30.04 in1017.30 in 29.88 in1011.90 in -
Precipitation 0.00 in0.00 in - -
Hour Temp Dew Point Humidity Winds Wind Gusts Pressure Precip Precip Rate Daily Precip Total
12:04 AM 43.1°F6.2°C 1.3°F-17.1°C 17% 1.0 mph E1.6 kmh E 4.0 mph6.4 kmh 30.02 in1016.6 mb 0.00 in0.0 mm 0.00 in0.0 mm 0.00 in0.0 mm
12:09 AM 42.8°F6.0°C 2.3°F-16.5°C 18% 2.0 mph E3.2 kmh E 4.0 mph6.4 kmh 30.02 in1016.6 mb 0.00 in0.0 mm 0.00 in0.0 mm 0.00 in0.0 mm
12:14 AM 42.8°F6.0°C 1.0°F-17.2°C 17% 2.0 mph E3.2 kmh E 4.0 mph6.4 kmh 30.02 in1016.6 mb 0.00 in0.0 mm 0.00 in0.0 mm 0.00 in0.0 mm
12:19 AM 43.1°F6.2°C 1.3°F-17.1°C 17% 2.0 mph ENE3.2 kmh ENE 4.0 mph6.4 kmh 30.01 in1016.3 mb 0.00 in0.0 mm 0.00 in0.0 mm 0.00 in0.0 mm
12:24 AM 43.5°F6.4°C 1.6°F-16.9°C 17% 1.0 mph ENE1.6 kmh ENE 4.0 mph6.4 kmh 30.01 in1016.3 mb 0.00 in0.0 mm 0.00 in0.0 mm 0.00 in0.0 mm
12:29 AM 43.3°F6.3°C 2.7°F-16.3°C 18% Calm Calm 2.0 mph3.2 kmh 30.01 in1016.3 mb 0.00 in0.0 mm 0.00 in0.0 mm 0.00 in0.0 mm
12:34 AM 42.9°F6.1°C 2.4°F-16.4°C 18% Calm Calm 2.0 mph3.2 kmh 30.01 in1016.3 mb 0.00 in0.0 mm 0.00 in0.0 mm 0.00 in0.0 mm
12:39 AM 42.3°F5.7°C 1.9°F-16.7°C 18% Calm Calm 1.0 mph1.6 kmh 30.01 in1016.3 mb 0.00 in0.0 mm 0.00 in0.0 mm 0.00 in0.0 mm
12:44 AM 41.6°F5.3°C 1.3°F-17.1°C 18% 1.0 mph ENE1.6 kmh ENE 2.0 mph3.2 kmh 30.01 in1016.3 mb 0.00 in0.0 mm 0.00 in0.0 mm 0.00 in0.0 mm
12:49 AM 41.1°F5.1°C 2.0°F-16.7°C 19% Calm Calm 2.0 mph3.2 kmh 30.01 in1016.3 mb 0.00 in0.0 mm 0.00 in0.0 mm 0.00 in0.0 mm
12:54 AM 40.6°F4.8°C 1.6°F-16.9°C 19% Calm Calm 2.0 mph3.2 kmh 30.01 in1016.3 mb 0.00 in0.0 mm 0.00 in0.0 mm 0.00 in0.0 mm
12:59 AM 40.5°F4.7°C 2.6°F-16.3°C 20% Calm Calm 3.0 mph4.8 kmh 30.01 in1016.3 mb 0.00 in0.0 mm 0.00 in0.0 mm 0.00 in0.0 mm
01:04 AM 40.3°F4.6°C 2.5°F-16.4°C 20% 1.0 mph ENE1.6 kmh ENE 3.0 mph4.8 kmh 30.02 in1016.6 mb 0.00 in0.0 mm 0.00 in0.0 mm 0.00 in0.0 mm
01:09 AM 40.1°F4.5°C 2.3°F-16.5°C 20% 2.0 mph ENE3.2 kmh ENE 3.0 mph4.8 kmh 30.02 in1016.6 mb 0.00 in0.0 mm 0.00 in0.0 mm 0.00 in0.0 mm
01:14 AM 40.2°F4.6°C 2.4°F-16.4°C 20% 1.0 mph ENE1.6 kmh ENE 4.0 mph6.4 kmh 30.02 in1016.6 mb 0.00 in0.0 mm 0.00 in0.0 mm 0.00 in0.0 mm
01:19 AM 40.1°F4.5°C 2.3°F-16.5°C 20% 2.0 mph ENE3.2 kmh ENE 4.0 mph6.4 kmh 30.02 in1016.6 mb 0.00 in0.0 mm 0.00 in0.0 mm 0.00 in0.0 mm
01:24 AM 40.1°F4.5°C 2.3°F-16.5°C 20% 1.0 mph ENE1.6 kmh ENE 4.0 mph6.4 kmh 30.02 in1016.6 mb 0.00 in0.0 mm 0.00 in0.0 mm 0.00 in0.0 mm
01:29 AM 39.8°F4.3°C 2.0°F-16.7°C 20% 1.0 mph ENE1.6 kmh ENE 4.0 mph6.4 kmh 30.02 in1016.6 mb 0.00 in0.0 mm 0.00 in0.0 mm 0.00 in0.0 mm
01:34 AM 39.6°F4.2°C 2.9°F-16.2°C 21% 2.0 mph ENE3.2 kmh ENE 3.0 mph4.8 kmh 30.02 in1016.6 mb 0.00 in0.0 mm 0.00 in0.0 mm 0.00 in0.0 mm
01:39 AM 39.5°F4.2°C 2.8°F-16.2°C 21% 1.0 mph ENE1.6 kmh ENE 3.0 mph4.8 kmh 30.02 in1016.6 mb 0.00 in0.0 mm 0.00 in0.0 mm 0.00 in0.0 mm
01:44 AM 39.5°F4.2°C 2.8°F-16.2°C 21% 1.0 mph ENE1.6 kmh ENE 3.0 mph4.8 kmh 30.02 in1016.6 mb 0.00 in0.0 mm 0.00 in0.0 mm 0.00 in0.0 mm
01:49 AM 39.5°F4.2°C 2.8°F-16.2°C 21% 1.0 mph ENE1.6 kmh ENE 3.0 mph4.8 kmh 30.01 in1016.3 mb 0.00 in0.0 mm 0.00 in0.0 mm 0.00 in0.0 mm
01:54 AM 39.3°F4.1°C 2.7°F-16.3°C 21% 1.0 mph ENE1.6 kmh ENE 2.0 mph3.2 kmh 30.01 in1016.3 mb 0.00 in0.0 mm 0.00 in0.0 mm 0.00 in0.0 mm
01:59 AM 38.9°F3.8°C 3.3°F-15.9°C 22% Calm Calm 2.0 mph3.2 kmh 30.00 in1015.9 mb 0.00 in0.0 mm 0.00 in0.0 mm 0.00 in0.0 mm
02:04 AM 38.5°F3.6°C 3.0°F-16.1°C 22% 2.0 mph ENE3.2 kmh ENE 3.0 mph4.8 kmh 30.00 in1015.9 mb 0.00 in0.0 mm 0.00 in0.0 mm 0.00 in0.0 mm
02:09 AM 38.2°F3.4°C 2.7°F-16.3°C 22% 1.0 mph ENE1.6 kmh ENE 4.0 mph6.4 kmh 30.00 in1015.9 mb 0.00 in0.0 mm 0.00 in0.0 mm 0.00 in0.0 mm
02:14 AM 38.6°F3.7°C 3.1°F-16.1°C 22% 2.0 mph ENE3.2 kmh ENE 4.0 mph6.4 kmh 30.00 in1015.9 mb 0.00 in0.0 mm 0.00 in0.0 mm 0.00 in0.0 mm
02:19 AM 39.3°F4.1°C 2.7°F-16.3°C 21% 3.0 mph ENE4.8 kmh ENE 4.0 mph6.4 kmh 30.01 in1016.3 mb 0.00 in0.0 mm 0.00 in0.0 mm 0.00 in0.0 mm
02:24 AM 39.9°F4.4°C 2.1°F-16.6°C 20% 1.0 mph ENE1.6 kmh ENE 4.0 mph6.4 kmh 30.01 in1016.3 mb 0.00 in0.0 mm 0.00 in0.0 mm 0.00 in0.0 mm
02:29 AM 40.2°F4.6°C 2.4°F-16.4°C 20% Calm Calm 4.0 mph6.4 kmh 30.01 in1016.3 mb 0.00 in0.0 mm 0.00 in0.0 mm 0.00 in0.0 mm
02:34 AM 40.2°F4.6°C 2.4°F-16.4°C 20% Calm Calm 4.0 mph6.4 kmh 30.01 in1016.3 mb 0.00 in0.0 mm 0.00 in0.0 mm 0.00 in0.0 mm
02:39 AM 39.9°F4.4°C 2.1°F-16.6°C 20% 1.0 mph ENE1.6 kmh ENE 2.0 mph3.2 kmh 30.01 in1016.3 mb 0.00 in0.0 mm 0.00 in0.0 mm 0.00 in0.0 mm
02:44 AM 39.5°F4.2°C 1.8°F-16.8°C 20% 1.0 mph ENE1.6 kmh ENE 2.0 mph3.2 kmh 30.01 in1016.3 mb 0.00 in0.0 mm 0.00 in0.0 mm 0.00 in0.0 mm
02:49 AM 39.1°F3.9°C 2.5°F-16.4°C 21% Calm Calm 2.0 mph3.2 kmh 30.00 in1015.9 mb 0.00 in0.0 mm 0.00 in0.0 mm 0.00 in0.0 mm
02:54 AM 38.6°F3.7°C 2.1°F-16.6°C 21% 1.0 mph ENE1.6 kmh ENE 2.0 mph3.2 kmh 30.00 in1015.9 mb 0.00 in0.0 mm 0.00 in0.0 mm 0.00 in0.0 mm
02:59 AM 38.2°F3.4°C 1.7°F-16.8°C 21% 1.0 mph ENE1.6 kmh ENE 1.0 mph1.6 kmh 30.01 in1016.3 mb 0.00 in0.0 mm 0.00 in0.0 mm 0.00 in0.0 mm
03:04 AM 37.8°F3.2°C 2.4°F-16.4°C 22% Calm Calm 2.0 mph3.2 kmh 30.01 in1016.3 mb 0.00 in0.0 mm 0.00 in0.0 mm 0.00 in0.0 mm
03:09 AM 37.5°F3.1°C 2.2°F-16.6°C 22% Calm Calm 2.0 mph3.2 kmh 30.01 in1016.3 mb 0.00 in0.0 mm 0.00 in0.0 mm 0.00 in0.0 mm
03:14 AM 37.5°F3.1°C 2.2°F-16.6°C 22% 1.0 mph ENE1.6 kmh ENE 2.0 mph3.2 kmh 30.01 in1016.3 mb 0.00 in0.0 mm 0.00 in0.0 mm 0.00 in0.0 mm
03:19 AM 37.5°F3.1°C 2.2°F-16.6°C 22% Calm Calm 2.0 mph3.2 kmh 30.00 in1015.9 mb 0.00 in0.0 mm 0.00 in0.0 mm 0.00 in0.0 mm
03:24 AM 37.8°F3.2°C 3.4°F-15.9°C 23% 1.0 mph ENE1.6 kmh ENE 3.0 mph4.8 kmh 30.00 in1015.9 mb 0.00 in0.0 mm 0.00 in0.0 mm 0.00 in0.0 mm
03:29 AM 38.0°F3.3°C 2.6°F-16.3°C 22% 1.0 mph ENE1.6 kmh ENE 3.0 mph4.8 kmh 30.00 in1015.9 mb 0.00 in0.0 mm 0.00 in0.0 mm 0.00 in0.0 mm
03:34 AM 38.3°F3.5°C 2.8°F-16.2°C 22% 2.0 mph ENE3.2 kmh ENE 3.0 mph4.8 kmh 30.00 in1015.9 mb 0.00 in0.0 mm 0.00 in0.0 mm 0.00 in0.0 mm
03:39 AM 38.8°F3.8°C 3.3°F-15.9°C 22% 2.0 mph ENE3.2 kmh ENE 3.0 mph4.8 kmh 30.00 in1015.9 mb 0.00 in0.0 mm 0.00 in0.0 mm 0.00 in0.0 mm
03:44 AM 38.9°F3.8°C 3.3°F-15.9°C 22% 3.0 mph ENE4.8 kmh ENE 3.0 mph4.8 kmh 30.00 in1015.9 mb 0.00 in0.0 mm 0.00 in0.0 mm 0.00 in0.0 mm
03:49 AM 39.9°F4.4°C 4.2°F-15.4°C 22% 4.0 mph ENE6.4 kmh ENE 5.0 mph8.0 kmh 29.98 in1015.2 mb 0.00 in0.0 mm 0.00 in0.0 mm 0.00 in0.0 mm
03:54 AM 41.8°F5.4°C 4.8°F-15.1°C 21% 2.0 mph ENE3.2 kmh ENE 6.0 mph9.7 kmh 29.98 in1015.2 mb 0.00 in0.0 mm 0.00 in0.0 mm 0.00 in0.0 mm
03:59 AM 42.1°F5.6°C 4.0°F-15.6°C 20% Calm Calm 6.0 mph9.7 kmh 29.98 in1015.2 mb 0.00 in0.0 mm 0.00 in0.0 mm 0.00 in0.0 mm
04:04 AM 41.8°F5.4°C 4.8°F-15.1°C 21% 1.0 mph ENE1.6 kmh ENE 6.0 mph9.7 kmh 29.98 in1015.2 mb 0.00 in0.0 mm 0.00 in0.0 mm 0.00 in0.0 mm
04:09 AM 41.6°F5.3°C 4.6°F-15.2°C 21% Calm Calm 6.0 mph9.7 kmh 29.98 in1015.2 mb 0.00 in0.0 mm 0.00 in0.0 mm 0.00 in0.0 mm
04:14 AM 41.3°F5.2°C 5.4°F-14.8°C 22% 2.0 mph ENE3.2 kmh ENE 3.0 mph4.8 kmh 29.97 in1014.9 mb 0.00 in0.0 mm 0.00 in0.0 mm 0.00 in0.0 mm
04:19 AM 40.9°F4.9°C 5.0°F-15.0°C 22% 1.0 mph ESE1.6 kmh ESE 4.0 mph6.4 kmh 29.97 in1014.9 mb 0.00 in0.0 mm 0.00 in0.0 mm 0.00 in0.0 mm
04:24 AM 40.6°F4.8°C 4.8°F-15.1°C 22% 1.0 mph ESE1.6 kmh ESE 4.0 mph6.4 kmh 29.97 in1014.9 mb 0.00 in0.0 mm 0.00 in0.0 mm 0.00 in0.0 mm
04:29 AM 40.3°F4.6°C 4.5°F-15.3°C 22% 1.0 mph ESE1.6 kmh ESE 4.0 mph6.4 kmh 29.97 in1014.9 mb 0.00 in0.0 mm 0.00 in0.0 mm 0.00 in0.0 mm
04:34 AM 40.1°F4.5°C 4.3°F-15.4°C 22% Calm Calm 4.0 mph6.4 kmh 29.97 in1014.9 mb 0.00 in0.0 mm 0.00 in0.0 mm 0.00 in0.0 mm
04:39 AM 39.6°F4.2°C 3.9°F-15.6°C 22% 1.0 mph ESE1.6 kmh ESE 3.0 mph4.8 kmh 29.97 in1014.9 mb 0.00 in0.0 mm 0.00 in0.0 mm 0.00 in0.0 mm
04:44 AM 39.3°F4.1°C 3.7°F-15.7°C 22% 2.0 mph ESE3.2 kmh ESE 3.0 mph4.8 kmh 29.97 in1014.9 mb 0.00 in0.0 mm 0.00 in0.0 mm 0.00 in0.0 mm
04:49 AM 39.9°F4.4°C 4.2°F-15.4°C 22% 3.0 mph ENE4.8 kmh ENE 4.0 mph6.4 kmh 29.97 in1014.9 mb 0.00 in0.0 mm 0.00 in0.0 mm 0.00 in0.0 mm
04:54 AM 40.9°F4.9°C 5.0°F-15.0°C 22% 3.0 mph ENE4.8 kmh ENE 4.0 mph6.4 kmh 29.97 in1014.9 mb 0.00 in0.0 mm 0.00 in0.0 mm 0.00 in0.0 mm
04:59 AM 41.5°F5.3°C 4.5°F-15.3°C 21% 2.0 mph E3.2 kmh E 4.0 mph6.4 kmh 29.96 in1014.6 mb 0.00 in0.0 mm 0.00 in0.0 mm 0.00 in0.0 mm
05:04 AM 41.6°F5.3°C 4.6°F-15.2°C 21% 1.0 mph E1.6 kmh E 4.0 mph6.4 kmh 29.96 in1014.6 mb 0.00 in0.0 mm 0.00 in0.0 mm 0.00 in0.0 mm
05:09 AM 41.3°F5.2°C 5.4°F-14.8°C 22% 1.0 mph ESE1.6 kmh ESE 4.0 mph6.4 kmh 29.96 in1014.6 mb 0.00 in0.0 mm 0.00 in0.0 mm 0.00 in0.0 mm
05:14 AM 41.2°F5.1°C 4.3°F-15.4°C 21% 2.0 mph ESE3.2 kmh ESE 4.0 mph6.4 kmh 29.98 in1015.2 mb 0.00 in0.0 mm 0.00 in0.0 mm 0.00 in0.0 mm
05:19 AM 41.1°F5.1°C 4.2°F-15.4°C 21% 5.0 mph ENE8.0 kmh ENE 7.0 mph11.3 kmh 29.98 in1015.2 mb 0.00 in0.0 mm 0.00 in0.0 mm 0.00 in0.0 mm
05:24 AM 42.6°F5.9°C 3.3°F-15.9°C 19% 5.0 mph ENE8.0 kmh ENE 9.0 mph14.5 kmh 29.98 in1015.2 mb 0.00 in0.0 mm 0.00 in0.0 mm 0.00 in0.0 mm
05:29 AM 43.3°F6.3°C 3.8°F-15.7°C 19% 5.0 mph ENE8.0 kmh ENE 9.0 mph14.5 kmh 29.98 in1015.2 mb 0.00 in0.0 mm 0.00 in0.0 mm 0.00 in0.0 mm
05:34 AM 43.8°F6.6°C 3.1°F-16.1°C 18% 4.0 mph ENE6.4 kmh ENE 9.0 mph14.5 kmh 29.97 in1014.9 mb 0.00 in0.0 mm 0.00 in0.0 mm 0.00 in0.0 mm
05:39 AM 44.3°F6.8°C 3.5°F-15.8°C 18% 6.0 mph E9.7 kmh E 9.0 mph14.5 kmh 29.97 in1014.9 mb 0.00 in0.0 mm 0.00 in0.0 mm 0.00 in0.0 mm
05:44 AM 44.5°F6.9°C 3.7°F-15.7°C 18% 3.0 mph E4.8 kmh E 9.0 mph14.5 kmh 29.97 in1014.9 mb 0.00 in0.0 mm 0.00 in0.0 mm 0.00 in0.0 mm
05:49 AM 44.2°F6.8°C 3.4°F-15.9°C 18% 3.0 mph E4.8 kmh E 9.0 mph14.5 kmh 29.97 in1014.9 mb 0.00 in0.0 mm 0.00 in0.0 mm 0.00 in0.0 mm
05:54 AM 43.8°F6.6°C 3.1°F-16.1°C 18% 4.0 mph E6.4 kmh E 6.0 mph9.7 kmh 29.97 in1014.9 mb 0.00 in0.0 mm 0.00 in0.0 mm 0.00 in0.0 mm
05:59 AM 43.6°F6.4°C 4.1°F-15.5°C 19% 5.0 mph E8.0 kmh E 7.0 mph11.3 kmh 29.98 in1015.2 mb 0.00 in0.0 mm 0.00 in0.0 mm 0.00 in0.0 mm
06:04 AM 43.5°F6.4°C 4.0°F-15.6°C 19% 4.0 mph E6.4 kmh E 7.0 mph11.3 kmh 29.98 in1015.2 mb 0.00 in0.0 mm 0.00 in0.0 mm 0.00 in0.0 mm
06:09 AM 43.2°F6.2°C 3.8°F-15.7°C 19% 4.0 mph ENE6.4 kmh ENE 7.0 mph11.3 kmh 29.98 in1015.2 mb 0.00 in0.0 mm 0.00 in0.0 mm 0.00 in0.0 mm
06:14 AM 43.5°F6.4°C 4.0°F-15.6°C 19% 5.0 mph ENE8.0 kmh ENE 9.0 mph14.5 kmh 30.00 in1015.9 mb 0.00 in0.0 mm 0.00 in0.0 mm 0.00 in0.0 mm
06:19 AM 43.6°F6.4°C 5.2°F-14.9°C 20% 3.0 mph E4.8 kmh E 9.0 mph14.5 kmh 30.00 in1015.9 mb 0.00 in0.0 mm 0.00 in0.0 mm 0.00 in0.0 mm
06:24 AM 43.5°F6.4°C 5.1°F-14.9°C 20% 2.0 mph SE3.2 kmh SE 9.0 mph14.5 kmh 30.00 in1015.9 mb 0.00 in0.0 mm 0.00 in0.0 mm 0.00 in0.0 mm
06:29 AM 43.5°F6.4°C 5.1°F-14.9°C 20% 4.0 mph E6.4 kmh E 9.0 mph14.5 kmh 30.00 in1015.9 mb 0.00 in0.0 mm 0.00 in0.0 mm 0.00 in0.0 mm
06:34 AM 43.5°F6.4°C 4.0°F-15.6°C 19% 4.0 mph ENE6.4 kmh ENE 9.0 mph14.5 kmh 30.01 in1016.3 mb 0.00 in0.0 mm 0.00 in0.0 mm 0.00 in0.0 mm
06:39 AM 43.8°F6.6°C 4.3°F-15.4°C 19% 5.0 mph ENE8.0 kmh ENE 9.0 mph14.5 kmh 30.01 in1016.3 mb 0.00 in0.0 mm 0.00 in0.0 mm 0.00 in0.0 mm
06:44 AM 43.8°F6.6°C 4.3°F-15.4°C 19% 4.0 mph ENE6.4 kmh ENE 9.0 mph14.5 kmh 30.02 in1016.6 mb 0.00 in0.0 mm 0.00 in0.0 mm 0.00 in0.0 mm
06:49 AM 43.5°F6.4°C 5.1°F-14.9°C 20% 4.0 mph E6.4 kmh E 9.0 mph14.5 kmh 30.02 in1016.6 mb 0.00 in0.0 mm 0.00 in0.0 mm 0.00 in0.0 mm
06:54 AM 43.2°F6.2°C 4.9°F-15.1°C 20% 1.0 mph E1.6 kmh E 7.0 mph11.3 kmh 30.02 in1016.6 mb 0.00 in0.0 mm 0.00 in0.0 mm 0.00 in0.0 mm
06:59 AM 42.8°F6.0°C 4.5°F-15.3°C 20% 4.0 mph E6.4 kmh E 7.0 mph11.3 kmh 30.03 in1016.9 mb 0.00 in0.0 mm 0.00 in0.0 mm 0.00 in0.0 mm
07:04 AM 42.6°F5.9°C 5.4°F-14.8°C 21% 2.0 mph E3.2 kmh E 7.0 mph11.3 kmh 30.03 in1016.9 mb 0.00 in0.0 mm 0.00 in0.0 mm 0.00 in0.0 mm
07:09 AM 42.9°F6.1°C 5.7°F-14.6°C 21% 1.0 mph E1.6 kmh E 7.0 mph11.3 kmh 30.03 in1016.9 mb 0.00 in0.0 mm 0.00 in0.0 mm 0.00 in0.0 mm
07:14 AM 43.3°F6.3°C 6.0°F-14.4°C 21% 5.0 mph ENE8.0 kmh ENE 7.0 mph11.3 kmh 30.04 in1017.3 mb 0.00 in0.0 mm 0.00 in0.0 mm 0.00 in0.0 mm
07:19 AM 43.9°F6.6°C 5.5°F-14.7°C 20% 4.0 mph E6.4 kmh E 7.0 mph11.3 kmh 30.04 in1017.3 mb 0.00 in0.0 mm 0.00 in0.0 mm 0.00 in0.0 mm
07:24 AM 44.2°F6.8°C 5.7°F-14.6°C 20% 4.0 mph E6.4 kmh E 6.0 mph9.7 kmh 30.04 in1017.3 mb 0.00 in0.0 mm 0.00 in0.0 mm 0.00 in0.0 mm
07:29 AM 44.6°F7.0°C 6.0°F-14.4°C 20% 3.0 mph E4.8 kmh E 7.0 mph11.3 kmh 30.03 in1016.9 mb 0.00 in0.0 mm 0.00 in0.0 mm 0.00 in0.0 mm
07:34 AM 45.1°F7.3°C 6.5°F-14.2°C 20% 4.0 mph E6.4 kmh E 10.0 mph16.1 kmh 30.03 in1016.9 mb 0.00 in0.0 mm 0.00 in0.0 mm 0.00 in0.0 mm
07:39 AM 45.8°F7.7°C 7.0°F-13.9°C 20% 4.0 mph E6.4 kmh E 10.0 mph16.1 kmh 30.03 in1016.9 mb 0.00 in0.0 mm 0.00 in0.0 mm 0.00 in0.0 mm
07:44 AM 46.4°F8.0°C 7.5°F-13.6°C 20% 3.0 mph ESE4.8 kmh ESE 10.0 mph16.1 kmh 30.03 in1016.9 mb 0.00 in0.0 mm 0.00 in0.0 mm 0.00 in0.0 mm
07:49 AM 46.8°F8.2°C 7.9°F-13.4°C 20% 4.0 mph ESE6.4 kmh ESE 10.0 mph16.1 kmh 30.04 in1017.3 mb 0.00 in0.0 mm 0.00 in0.0 mm 0.00 in0.0 mm
07:54 AM 47.3°F8.5°C 7.2°F-13.8°C 19% 6.0 mph ESE9.7 kmh ESE 10.0 mph16.1 kmh 30.04 in1017.3 mb 0.00 in0.0 mm 0.00 in0.0 mm 0.00 in0.0 mm
07:59 AM 47.7°F8.7°C 7.5°F-13.6°C 19% 3.0 mph ESE4.8 kmh ESE 10.0 mph16.1 kmh 30.04 in1017.3 mb 0.00 in0.0 mm 0.00 in0.0 mm 0.00 in0.0 mm
08:04 AM 48.2°F9.0°C 7.9°F-13.4°C 19% 6.0 mph ESE9.7 kmh ESE 9.0 mph14.5 kmh 30.04 in1017.3 mb 0.00 in0.0 mm 0.00 in0.0 mm 0.00 in0.0 mm
08:09 AM 48.6°F9.2°C 7.0°F-13.9°C 18% 1.0 mph ESE1.6 kmh ESE 9.0 mph14.5 kmh 30.04 in1017.3 mb 0.00 in0.0 mm 0.00 in0.0 mm 0.00 in0.0 mm
08:14 AM 49.1°F9.5°C 6.2°F-14.3°C 17% 8.0 mph ENE12.9 kmh ENE 10.0 mph16.1 kmh 30.04 in1017.3 mb 0.00 in0.0 mm 0.00 in0.0 mm 0.00 in0.0 mm
08:19 AM 50.1°F10.1°C 7.0°F-13.9°C 17% 3.0 mph E4.8 kmh E 11.0 mph17.7 kmh 30.03 in1016.9 mb 0.00 in0.0 mm 0.00 in0.0 mm 0.00 in0.0 mm
08:24 AM 51.0°F10.6°C 6.4°F-14.2°C 16% 7.0 mph E11.3 kmh E 11.0 mph17.7 kmh 30.03 in1016.9 mb 0.00 in0.0 mm 0.00 in0.0 mm 0.00 in0.0 mm
08:29 AM 51.9°F11.1°C 5.7°F-14.6°C 15% 3.0 mph E4.8 kmh E 11.0 mph17.7 kmh 30.03 in1016.9 mb 0.00 in0.0 mm 0.00 in0.0 mm 0.00 in0.0 mm
08:34 AM 52.6°F11.4°C 4.8°F-15.1°C 14% 4.0 mph E6.4 kmh E 11.0 mph17.7 kmh 30.03 in1016.9 mb 0.00 in0.0 mm 0.00 in0.0 mm 0.00 in0.0 mm
08:39 AM 53.5°F11.9°C 7.0°F-13.9°C 15% 10.0 mph E16.1 kmh E 13.0 mph20.9 kmh 30.03 in1016.9 mb 0.00 in0.0 mm 0.00 in0.0 mm 0.00 in0.0 mm
08:44 AM 53.8°F12.1°C 5.7°F-14.6°C 14% 9.0 mph NE14.5 kmh NE 13.0 mph20.9 kmh 30.03 in1016.9 mb 0.00 in0.0 mm 0.00 in0.0 mm 0.00 in0.0 mm
08:49 AM 54.1°F12.3°C 4.4°F-15.3°C 13% 12.0 mph E19.3 kmh E 18.0 mph29.0 kmh 30.02 in1016.6 mb 0.00 in0.0 mm 0.00 in0.0 mm 0.00 in0.0 mm
08:54 AM 54.2°F12.3°C 6.1°F-14.4°C 14% 14.0 mph E22.5 kmh E 18.0 mph29.0 kmh 30.02 in1016.6 mb 0.00 in0.0 mm 0.00 in0.0 mm 0.00 in0.0 mm
08:59 AM 54.7°F12.6°C 6.5°F-14.2°C 14% 6.0 mph E9.7 kmh E 18.0 mph29.0 kmh 30.02 in1016.6 mb 0.00 in0.0 mm 0.00 in0.0 mm 0.00 in0.0 mm
09:04 AM 55.1°F12.8°C 5.2°F-14.9°C 13% 4.0 mph ENE6.4 kmh ENE 18.0 mph29.0 kmh 30.02 in1016.6 mb 0.00 in0.0 mm 0.00 in0.0 mm 0.00 in0.0 mm
09:09 AM 55.4°F13.0°C 5.4°F-14.8°C 13% 11.0 mph NE17.7 kmh NE 18.0 mph29.0 kmh 30.02 in1016.6 mb 0.00 in0.0 mm 0.00 in0.0 mm 0.00 in0.0 mm
09:14 AM 55.6°F13.1°C 5.6°F-14.7°C 13% 3.0 mph ENE4.8 kmh ENE 15.0 mph24.1 kmh 30.02 in1016.6 mb 0.00 in0.0 mm 0.00 in0.0 mm 0.00 in0.0 mm
09:19 AM 56.0°F13.3°C 5.9°F-14.5°C 13% 6.0 mph ENE9.7 kmh ENE 15.0 mph24.1 kmh 30.03 in1016.9 mb 0.00 in0.0 mm 0.00 in0.0 mm 0.00 in0.0 mm
09:24 AM 56.2°F13.4°C 6.0°F-14.4°C 13% 11.0 mph E17.7 kmh E 15.0 mph24.1 kmh 30.03 in1016.9 mb 0.00 in0.0 mm 0.00 in0.0 mm 0.00 in0.0 mm
09:29 AM 56.2°F13.4°C 6.0°F-14.4°C 13% 9.0 mph ENE14.5 kmh ENE 18.0 mph29.0 kmh 30.03 in1016.9 mb 0.00 in0.0 mm 0.00 in0.0 mm 0.00 in0.0 mm
09:34 AM 56.3°F13.5°C 6.1°F-14.4°C 13% 14.0 mph E22.5 kmh E 18.0 mph29.0 kmh 30.03 in1016.9 mb 0.00 in0.0 mm 0.00 in0.0 mm 0.00 in0.0 mm
09:39 AM 56.7°F13.7°C 6.4°F-14.2°C 13% 10.0 mph E16.1 kmh E 18.0 mph29.0 kmh 30.03 in1016.9 mb 0.00 in0.0 mm 0.00 in0.0 mm 0.00 in0.0 mm
09:44 AM 56.7°F13.7°C 6.4°F-14.2°C 13% 13.0 mph NE20.9 kmh NE 18.0 mph29.0 kmh 30.03 in1016.9 mb 0.00 in0.0 mm 0.00 in0.0 mm 0.00 in0.0 mm
09:49 AM 57.0°F13.9°C 6.7°F-14.1°C 13% 9.0 mph ENE14.5 kmh ENE 18.0 mph29.0 kmh 30.03 in1016.9 mb 0.00 in0.0 mm 0.00 in0.0 mm 0.00 in0.0 mm
09:54 AM 57.3°F14.1°C 6.9°F-13.9°C 13% 6.0 mph ESE9.7 kmh ESE 18.0 mph29.0 kmh 30.03 in1016.9 mb 0.00 in0.0 mm 0.00 in0.0 mm 0.00 in0.0 mm
09:59 AM 57.8°F14.3°C 5.5°F-14.7°C 12% 14.0 mph ENE22.5 kmh ENE 16.0 mph25.7 kmh 30.03 in1016.9 mb 0.00 in0.0 mm 0.00 in0.0 mm 0.00 in0.0 mm
10:04 AM 57.8°F14.3°C 5.5°F-14.7°C 12% 10.0 mph NE16.1 kmh NE 16.0 mph25.7 kmh 30.03 in1016.9 mb 0.00 in0.0 mm 0.00 in0.0 mm 0.00 in0.0 mm
10:09 AM 58.1°F14.5°C 5.8°F-14.6°C 12% 3.0 mph ESE4.8 kmh ESE 15.0 mph24.1 kmh 30.03 in1016.9 mb 0.00 in0.0 mm 0.00 in0.0 mm 0.00 in0.0 mm
10:14 AM 58.4°F14.7°C 4.1°F-15.5°C 11% 3.0 mph ENE4.8 kmh ENE 17.0 mph27.4 kmh 30.03 in1016.9 mb 0.00 in0.0 mm 0.00 in0.0 mm 0.00 in0.0 mm
10:19 AM 58.9°F14.9°C 6.4°F-14.2°C 12% 9.0 mph ENE14.5 kmh ENE 18.0 mph29.0 kmh 30.02 in1016.6 mb 0.00 in0.0 mm 0.00 in0.0 mm 0.00 in0.0 mm
10:24 AM 59.2°F15.1°C 6.6°F-14.1°C 12% 12.0 mph NE19.3 kmh NE 18.0 mph29.0 kmh 30.02 in1016.6 mb 0.00 in0.0 mm 0.00 in0.0 mm 0.00 in0.0 mm
10:29 AM 59.5°F15.3°C 5.0°F-15.0°C 11% 12.0 mph E19.3 kmh E 18.0 mph29.0 kmh 30.02 in1016.6 mb 0.00 in0.0 mm 0.00 in0.0 mm 0.00 in0.0 mm
10:34 AM 59.5°F15.3°C 5.0°F-15.0°C 11% 10.0 mph E16.1 kmh E 18.0 mph29.0 kmh 30.02 in1016.6 mb 0.00 in0.0 mm 0.00 in0.0 mm 0.00 in0.0 mm
10:39 AM 59.2°F15.1°C 4.7°F-15.2°C 11% 4.0 mph E6.4 kmh E 19.0 mph30.6 kmh 30.02 in1016.6 mb 0.00 in0.0 mm 0.00 in0.0 mm 0.00 in0.0 mm
10:44 AM 59.8°F15.4°C 5.2°F-14.9°C 11% 12.0 mph ENE19.3 kmh ENE 19.0 mph30.6 kmh 30.02 in1016.6 mb 0.00 in0.0 mm 0.00 in0.0 mm 0.00 in0.0 mm
10:49 AM 60.2°F15.7°C 5.5°F-14.7°C 11% 10.0 mph ENE16.1 kmh ENE 19.0 mph30.6 kmh 30.01 in1016.3 mb 0.00 in0.0 mm 0.00 in0.0 mm 0.00 in0.0 mm
10:54 AM 59.9°F15.5°C 5.3°F-14.8°C 11% 11.0 mph NE17.7 kmh NE 19.0 mph30.6 kmh 30.01 in1016.3 mb 0.00 in0.0 mm 0.00 in0.0 mm 0.00 in0.0 mm
10:59 AM 60.1°F15.6°C 7.3°F-13.7°C 12% 5.0 mph E8.0 kmh E 19.0 mph30.6 kmh 30.01 in1016.3 mb 0.00 in0.0 mm 0.00 in0.0 mm 0.00 in0.0 mm
11:04 AM 60.5°F15.8°C 3.7°F-15.7°C 10% 5.0 mph E8.0 kmh E 19.0 mph30.6 kmh 30.01 in1016.3 mb 0.00 in0.0 mm 0.00 in0.0 mm 0.00 in0.0 mm
11:09 AM 60.4°F15.8°C 5.7°F-14.6°C 11% 7.0 mph E11.3 kmh E 19.0 mph30.6 kmh 30.01 in1016.3 mb 0.00 in0.0 mm 0.00 in0.0 mm 0.00 in0.0 mm
11:14 AM 60.9°F16.1°C 6.1°F-14.4°C 11% 9.0 mph E14.5 kmh E 19.0 mph30.6 kmh 30.01 in1016.3 mb 0.00 in0.0 mm 0.00 in0.0 mm 0.00 in0.0 mm
11:19 AM 61.2°F16.2°C 6.3°F-14.3°C 11% 5.0 mph ESE8.0 kmh ESE 19.0 mph30.6 kmh 30.01 in1016.3 mb 0.00 in0.0 mm 0.00 in0.0 mm 0.00 in0.0 mm
11:24 AM 61.2°F16.2°C 6.3°F-14.3°C 11% 10.0 mph ENE16.1 kmh ENE 19.0 mph30.6 kmh 30.01 in1016.3 mb 0.00 in0.0 mm 0.00 in0.0 mm 0.00 in0.0 mm
11:29 AM 61.3°F16.3°C 10.1°F-12.2°C 13% 5.0 mph E8.0 kmh E 15.0 mph24.1 kmh 30.01 in1016.3 mb 0.00 in0.0 mm 0.00 in0.0 mm 0.00 in0.0 mm
11:34 AM 61.8°F16.6°C 6.8°F-14.0°C 11% 7.0 mph E11.3 kmh E 15.0 mph24.1 kmh 30.01 in1016.3 mb 0.00 in0.0 mm 0.00 in0.0 mm 0.00 in0.0 mm
11:39 AM 61.0°F16.1°C 1.8°F-16.8°C 9% 12.0 mph ENE19.3 kmh ENE 17.0 mph27.4 kmh 30.01 in1016.3 mb 0.00 in0.0 mm 0.00 in0.0 mm 0.00 in0.0 mm
11:44 AM 60.5°F15.8°C 5.8°F-14.6°C 11% 11.0 mph E17.7 kmh E 17.0 mph27.4 kmh 30.01 in1016.3 mb 0.00 in0.0 mm 0.00 in0.0 mm 0.00 in0.0 mm
11:49 AM 60.7°F15.9°C 5.9°F-14.5°C 11% 12.0 mph ENE19.3 kmh ENE 17.0 mph27.4 kmh 30.00 in1015.9 mb 0.00 in0.0 mm 0.00 in0.0 mm 0.00 in0.0 mm
11:54 AM 60.9°F16.1°C 6.1°F-14.4°C 11% 6.0 mph E9.7 kmh E 17.0 mph27.4 kmh 30.00 in1015.9 mb 0.00 in0.0 mm 0.00 in0.0 mm 0.00 in0.0 mm
11:59 AM 61.8°F16.6°C 8.7°F-12.9°C 12% 7.0 mph E11.3 kmh E 17.0 mph27.4 kmh 30.00 in1015.9 mb 0.00 in0.0 mm 0.00 in0.0 mm 0.00 in0.0 mm
12:04 PM 62.4°F16.9°C 7.2°F-13.8°C 11% 5.0 mph ESE8.0 kmh ESE 17.0 mph27.4 kmh 30.00 in1015.9 mb 0.00 in0.0 mm 0.00 in0.0 mm 0.00 in0.0 mm
12:09 PM 63.1°F17.3°C 7.8°F-13.4°C 11% 1.0 mph E1.6 kmh E 14.0 mph22.5 kmh 30.00 in1015.9 mb 0.00 in0.0 mm 0.00 in0.0 mm 0.00 in0.0 mm
12:14 PM 63.4°F17.4°C 9.9°F-12.3°C 12% 10.0 mph ENE16.1 kmh ENE 14.0 mph22.5 kmh 30.00 in1015.9 mb 0.00 in0.0 mm 0.00 in0.0 mm 0.00 in0.0 mm
12:19 PM 63.5°F17.5°C 8.1°F-13.3°C 11% 14.0 mph E22.5 kmh E 14.0 mph22.5 kmh 29.99 in1015.6 mb 0.00 in0.0 mm 0.00 in0.0 mm 0.00 in0.0 mm
12:24 PM 63.9°F17.7°C 8.4°F-13.1°C 11% 6.0 mph ENE9.7 kmh ENE 15.0 mph24.1 kmh 29.99 in1015.6 mb 0.00 in0.0 mm 0.00 in0.0 mm 0.00 in0.0 mm
12:29 PM 64.0°F17.8°C 10.4°F-12.0°C 12% 5.0 mph E8.0 kmh E 15.0 mph24.1 kmh 29.99 in1015.6 mb 0.00 in0.0 mm 0.00 in0.0 mm 0.00 in0.0 mm
12:34 PM 63.9°F17.7°C 8.4°F-13.1°C 11% 10.0 mph NE16.1 kmh NE 15.0 mph24.1 kmh 29.98 in1015.2 mb 0.00 in0.0 mm 0.00 in0.0 mm 0.00 in0.0 mm
12:39 PM 63.9°F17.7°C 10.3°F-12.1°C 12% 6.0 mph SE9.7 kmh SE 15.0 mph24.1 kmh 29.98 in1015.2 mb 0.00 in0.0 mm 0.00 in0.0 mm 0.00 in0.0 mm
12:44 PM 64.5°F18.1°C 8.8°F-12.9°C 11% 9.0 mph E14.5 kmh E 14.0 mph22.5 kmh 29.98 in1015.2 mb 0.00 in0.0 mm 0.00 in0.0 mm 0.00 in0.0 mm
12:49 PM 64.2°F17.9°C 8.6°F-13.0°C 11% 5.0 mph E8.0 kmh E 17.0 mph27.4 kmh 29.97 in1014.9 mb 0.00 in0.0 mm 0.00 in0.0 mm 0.00 in0.0 mm
12:54 PM 64.0°F17.8°C 8.5°F-13.1°C 11% 10.0 mph ENE16.1 kmh ENE 17.0 mph27.4 kmh 29.97 in1014.9 mb 0.00 in0.0 mm 0.00 in0.0 mm 0.00 in0.0 mm
12:59 PM 64.5°F18.1°C 8.8°F-12.9°C 11% 2.0 mph ESE3.2 kmh ESE 17.0 mph27.4 kmh 29.97 in1014.9 mb 0.00 in0.0 mm 0.00 in0.0 mm 0.00 in0.0 mm
01:04 PM 65.2°F18.4°C 11.3°F-11.5°C 12% 6.0 mph E9.7 kmh E 17.0 mph27.4 kmh 29.96 in1014.6 mb 0.00 in0.0 mm 0.00 in0.0 mm 0.00 in0.0 mm
01:09 PM 64.3°F17.9°C 6.6°F-14.1°C 10% 12.0 mph ENE19.3 kmh ENE 14.0 mph22.5 kmh 29.96 in1014.6 mb 0.00 in0.0 mm 0.00 in0.0 mm 0.00 in0.0 mm
01:14 PM 64.0°F17.8°C 6.4°F-14.2°C 10% 5.0 mph NE8.0 kmh NE 14.0 mph22.5 kmh 29.96 in1014.6 mb 0.00 in0.0 mm 0.00 in0.0 mm 0.00 in0.0 mm
01:19 PM 64.3°F17.9°C 6.6°F-14.1°C 10% 6.0 mph ENE9.7 kmh ENE 14.0 mph22.5 kmh 29.97 in1014.9 mb 0.00 in0.0 mm 0.00 in0.0 mm 0.00 in0.0 mm
01:24 PM 64.5°F18.1°C 6.7°F-14.1°C 10% 6.0 mph NE9.7 kmh NE 14.0 mph22.5 kmh 29.97 in1014.9 mb 0.00 in0.0 mm 0.00 in0.0 mm 0.00 in0.0 mm
01:29 PM 64.2°F17.9°C 8.6°F-13.0°C 11% 5.0 mph NE8.0 kmh NE 11.0 mph17.7 kmh 29.97 in1014.9 mb 0.00 in0.0 mm 0.00 in0.0 mm 0.00 in0.0 mm
01:34 PM 64.3°F17.9°C 8.7°F-12.9°C 11% 5.0 mph NNE8.0 kmh NNE 12.0 mph19.3 kmh 29.96 in1014.6 mb 0.00 in0.0 mm 0.00 in0.0 mm 0.00 in0.0 mm
01:39 PM 64.3°F17.9°C 8.7°F-12.9°C 11% 7.0 mph ENE11.3 kmh ENE 12.0 mph19.3 kmh 29.96 in1014.6 mb 0.00 in0.0 mm 0.00 in0.0 mm 0.00 in0.0 mm
01:44 PM 64.5°F18.1°C 6.7°F-14.1°C 10% 5.0 mph E8.0 kmh E 12.0 mph19.3 kmh 29.96 in1014.6 mb 0.00 in0.0 mm 0.00 in0.0 mm 0.00 in0.0 mm
01:49 PM 64.7°F18.2°C 6.9°F-13.9°C 10% 2.0 mph E3.2 kmh E 12.0 mph19.3 kmh 29.95 in1014.2 mb 0.00 in0.0 mm 0.00 in0.0 mm 0.00 in0.0 mm
01:54 PM 65.0°F18.3°C 7.1°F-13.8°C 10% 2.0 mph ENE3.2 kmh ENE 11.0 mph17.7 kmh 29.95 in1014.2 mb 0.00 in0.0 mm 0.00 in0.0 mm 0.00 in0.0 mm
01:59 PM 65.5°F18.6°C 9.6°F-12.4°C 11% 2.0 mph E3.2 kmh E 11.0 mph17.7 kmh 29.95 in1014.2 mb 0.00 in0.0 mm 0.00 in0.0 mm 0.00 in0.0 mm
02:04 PM 65.5°F18.6°C 7.5°F-13.6°C 10% 4.0 mph E6.4 kmh E 10.0 mph16.1 kmh 29.95 in1014.2 mb 0.00 in0.0 mm 0.00 in0.0 mm 0.00 in0.0 mm
02:09 PM 66.0°F18.9°C 10.0°F-12.2°C 11% 5.0 mph ESE8.0 kmh ESE 10.0 mph16.1 kmh 29.95 in1014.2 mb 0.00 in0.0 mm 0.00 in0.0 mm 0.00 in0.0 mm
02:14 PM 66.8°F19.3°C 8.5°F-13.1°C 10% 6.0 mph E9.7 kmh E 10.0 mph16.1 kmh 29.95 in1014.2 mb 0.00 in0.0 mm 0.00 in0.0 mm 0.00 in0.0 mm
02:19 PM 67.3°F19.6°C 11.0°F-11.7°C 11% 6.0 mph SE9.7 kmh SE 10.0 mph16.1 kmh 29.94 in1013.9 mb 0.00 in0.0 mm 0.00 in0.0 mm 0.00 in0.0 mm
02:24 PM 67.9°F19.9°C 11.5°F-11.4°C 11% 2.0 mph ESE3.2 kmh ESE 10.0 mph16.1 kmh 29.94 in1013.9 mb 0.00 in0.0 mm 0.00 in0.0 mm 0.00 in0.0 mm
02:29 PM 67.6°F19.8°C 11.2°F-11.6°C 11% 3.0 mph SSE4.8 kmh SSE 10.0 mph16.1 kmh 29.94 in1013.9 mb 0.00 in0.0 mm 0.00 in0.0 mm 0.00 in0.0 mm
02:34 PM 67.9°F19.9°C 9.3°F-12.6°C 10% 6.0 mph ENE9.7 kmh ENE 9.0 mph14.5 kmh 29.93 in1013.5 mb 0.00 in0.0 mm 0.00 in0.0 mm 0.00 in0.0 mm
02:39 PM 67.8°F19.9°C 9.3°F-12.6°C 10% 2.0 mph E3.2 kmh E 9.0 mph14.5 kmh 29.93 in1013.5 mb 0.00 in0.0 mm 0.00 in0.0 mm 0.00 in0.0 mm
02:44 PM 67.6°F19.8°C 9.1°F-12.7°C 10% 4.0 mph ESE6.4 kmh ESE 9.0 mph14.5 kmh 29.93 in1013.5 mb 0.00 in0.0 mm 0.00 in0.0 mm 0.00 in0.0 mm
02:49 PM 67.3°F19.6°C 6.6°F-14.1°C 9% 1.0 mph ESE1.6 kmh ESE 9.0 mph14.5 kmh 29.93 in1013.5 mb 0.00 in0.0 mm 0.00 in0.0 mm 0.00 in0.0 mm
02:54 PM 67.8°F19.9°C 9.3°F-12.6°C 10% 4.0 mph ENE6.4 kmh ENE 7.0 mph11.3 kmh 29.93 in1013.5 mb 0.00 in0.0 mm 0.00 in0.0 mm 0.00 in0.0 mm
02:59 PM 67.9°F19.9°C 9.3°F-12.6°C 10% 3.0 mph E4.8 kmh E 7.0 mph11.3 kmh 29.93 in1013.5 mb 0.00 in0.0 mm 0.00 in0.0 mm 0.00 in0.0 mm
03:04 PM 67.8°F19.9°C 9.3°F-12.6°C 10% Calm Calm 7.0 mph11.3 kmh 29.92 in1013.2 mb 0.00 in0.0 mm 0.00 in0.0 mm 0.00 in0.0 mm
03:09 PM 68.3°F20.2°C 7.3°F-13.7°C 9% 3.0 mph E4.8 kmh E 7.0 mph11.3 kmh 29.92 in1013.2 mb 0.00 in0.0 mm 0.00 in0.0 mm 0.00 in0.0 mm
03:14 PM 68.1°F20.1°C 9.5°F-12.5°C 10% 3.0 mph S4.8 kmh S 6.0 mph9.7 kmh 29.92 in1013.2 mb 0.00 in0.0 mm 0.00 in0.0 mm 0.00 in0.0 mm
03:19 PM 68.6°F20.3°C 7.5°F-13.6°C 9% 2.0 mph SE3.2 kmh SE 6.0 mph9.7 kmh 29.90 in1012.5 mb 0.00 in0.0 mm 0.00 in0.0 mm 0.00 in0.0 mm
03:24 PM 68.6°F20.3°C 9.9°F-12.3°C 10% 3.0 mph SSW4.8 kmh SSW 3.0 mph4.8 kmh 29.90 in1012.5 mb 0.00 in0.0 mm 0.00 in0.0 mm 0.00 in0.0 mm
03:29 PM 68.4°F20.2°C 7.4°F-13.7°C 9% 1.0 mph E1.6 kmh E 3.0 mph4.8 kmh 29.90 in1012.5 mb 0.00 in0.0 mm 0.00 in0.0 mm 0.00 in0.0 mm
03:34 PM 68.3°F20.2°C 9.6°F-12.4°C 10% 2.0 mph S3.2 kmh S 5.0 mph8.0 kmh 29.90 in1012.5 mb 0.00 in0.0 mm 0.00 in0.0 mm 0.00 in0.0 mm
03:39 PM 68.3°F20.2°C 11.8°F-11.2°C 11% 1.0 mph NW1.6 kmh NW 11.0 mph17.7 kmh 29.90 in1012.5 mb 0.00 in0.0 mm 0.00 in0.0 mm 0.00 in0.0 mm
03:44 PM 68.6°F20.3°C 12.0°F-11.1°C 11% 4.0 mph WSW6.4 kmh WSW 11.0 mph17.7 kmh 29.90 in1012.5 mb 0.00 in0.0 mm 0.00 in0.0 mm 0.00 in0.0 mm
03:49 PM 68.6°F20.3°C 12.0°F-11.1°C 11% 5.0 mph W8.0 kmh W 11.0 mph17.7 kmh 29.90 in1012.5 mb 0.00 in0.0 mm 0.00 in0.0 mm 0.00 in0.0 mm
03:54 PM 68.6°F20.3°C 12.0°F-11.1°C 11% 4.0 mph NW6.4 kmh NW 11.0 mph17.7 kmh 29.90 in1012.5 mb 0.00 in0.0 mm 0.00 in0.0 mm 0.00 in0.0 mm
03:59 PM 68.3°F20.2°C 11.8°F-11.2°C 11% 5.0 mph W8.0 kmh W 11.0 mph17.7 kmh 29.90 in1012.5 mb 0.00 in0.0 mm 0.00 in0.0 mm 0.00 in0.0 mm
04:04 PM 67.8°F19.9°C 13.4°F-10.3°C 12% 4.0 mph W6.4 kmh W 11.0 mph17.7 kmh 29.90 in1012.5 mb 0.00 in0.0 mm 0.00 in0.0 mm 0.00 in0.0 mm
04:09 PM 67.6°F19.8°C 13.2°F-10.4°C 12% 7.0 mph WSW11.3 kmh WSW 12.0 mph19.3 kmh 29.90 in1012.5 mb 0.00 in0.0 mm 0.00 in0.0 mm 0.00 in0.0 mm
04:14 PM 67.4°F19.7°C 13.0°F-10.6°C 12% 2.0 mph WNW3.2 kmh WNW 12.0 mph19.3 kmh 29.90 in1012.5 mb 0.00 in0.0 mm 0.00 in0.0 mm 0.00 in0.0 mm
04:19 PM 67.4°F19.7°C 11.1°F-11.6°C 11% 3.0 mph WNW4.8 kmh WNW 12.0 mph19.3 kmh 29.90 in1012.5 mb 0.00 in0.0 mm 0.00 in0.0 mm 0.00 in0.0 mm
04:24 PM 67.3°F19.6°C 13.0°F-10.6°C 12% 3.0 mph WNW4.8 kmh WNW 12.0 mph19.3 kmh 29.90 in1012.5 mb 0.00 in0.0 mm 0.00 in0.0 mm 0.00 in0.0 mm
04:29 PM 67.3°F19.6°C 13.0°F-10.6°C 12% 9.0 mph W14.5 kmh W 12.0 mph19.3 kmh 29.90 in1012.5 mb 0.00 in0.0 mm 0.00 in0.0 mm 0.00 in0.0 mm
04:34 PM 66.8°F19.3°C 12.6°F-10.8°C 12% 5.0 mph W8.0 kmh W 12.0 mph19.3 kmh 29.90 in1012.5 mb 0.00 in0.0 mm 0.00 in0.0 mm 0.00 in0.0 mm
04:39 PM 66.6°F19.2°C 12.4°F-10.9°C 12% 4.0 mph WNW6.4 kmh WNW 10.0 mph16.1 kmh 29.90 in1012.5 mb 0.00 in0.0 mm 0.00 in0.0 mm 0.00 in0.0 mm
04:44 PM 66.4°F19.1°C 12.3°F-10.9°C 12% 4.0 mph WSW6.4 kmh WSW 12.0 mph19.3 kmh 29.90 in1012.5 mb 0.00 in0.0 mm 0.00 in0.0 mm 0.00 in0.0 mm
04:49 PM 66.0°F18.9°C 12.0°F-11.1°C 12% 5.0 mph WNW8.0 kmh WNW 12.0 mph19.3 kmh 29.90 in1012.5 mb 0.00 in0.0 mm 0.00 in0.0 mm 0.00 in0.0 mm
04:54 PM 65.5°F18.6°C 11.6°F-11.3°C 12% 5.0 mph WSW8.0 kmh WSW 12.0 mph19.3 kmh 29.90 in1012.5 mb 0.00 in0.0 mm 0.00 in0.0 mm 0.00 in0.0 mm
04:59 PM 64.8°F18.2°C 12.8°F-10.7°C 13% 3.0 mph SSW4.8 kmh SSW 12.0 mph19.3 kmh 29.90 in1012.5 mb 0.00 in0.0 mm 0.00 in0.0 mm 0.00 in0.0 mm
05:04 PM 64.5°F18.1°C 12.6°F-10.8°C 13% 3.0 mph W4.8 kmh W 10.0 mph16.1 kmh 29.90 in1012.5 mb 0.00 in0.0 mm 0.00 in0.0 mm 0.00 in0.0 mm
05:09 PM 64.0°F17.8°C 12.2°F-11.0°C 13% 4.0 mph WNW6.4 kmh WNW 11.0 mph17.7 kmh 29.90 in1012.5 mb 0.00 in0.0 mm 0.00 in0.0 mm 0.00 in0.0 mm
05:14 PM 63.7°F17.6°C 12.0°F-11.1°C 13% 2.0 mph W3.2 kmh W 11.0 mph17.7 kmh 29.90 in1012.5 mb 0.00 in0.0 mm 0.00 in0.0 mm 0.00 in0.0 mm
05:19 PM 63.2°F17.3°C 13.2°F-10.4°C 14% 4.0 mph W6.4 kmh W 11.0 mph17.7 kmh 29.90 in1012.5 mb 0.00 in0.0 mm 0.00 in0.0 mm 0.00 in0.0 mm
05:24 PM 62.9°F17.2°C 13.0°F-10.6°C 14% 4.0 mph W6.4 kmh W 11.0 mph17.7 kmh 29.90 in1012.5 mb 0.00 in0.0 mm 0.00 in0.0 mm 0.00 in0.0 mm
05:29 PM 62.4°F16.9°C 12.6°F-10.8°C 14% 3.0 mph W4.8 kmh W 8.0 mph12.9 kmh 29.90 in1012.5 mb 0.00 in0.0 mm 0.00 in0.0 mm 0.00 in0.0 mm
05:34 PM 62.1°F16.7°C 12.4°F-10.9°C 14% 1.0 mph WSW1.6 kmh WSW 8.0 mph12.9 kmh 29.90 in1012.5 mb 0.00 in0.0 mm 0.00 in0.0 mm 0.00 in0.0 mm
05:39 PM 61.6°F16.4°C 13.5°F-10.3°C 15% 7.0 mph WSW11.3 kmh WSW 9.0 mph14.5 kmh 29.90 in1012.5 mb 0.00 in0.0 mm 0.00 in0.0 mm 0.00 in0.0 mm
05:44 PM 61.2°F16.2°C 14.7°F-9.6°C 16% 6.0 mph WSW9.7 kmh WSW 9.0 mph14.5 kmh 29.90 in1012.5 mb 0.00 in0.0 mm 0.00 in0.0 mm 0.00 in0.0 mm
05:49 PM 60.9°F16.1°C 14.4°F-9.8°C 16% 2.0 mph W3.2 kmh W 9.0 mph14.5 kmh 29.91 in1012.9 mb 0.00 in0.0 mm 0.00 in0.0 mm 0.00 in0.0 mm
05:54 PM 60.5°F15.8°C 15.5°F-9.2°C 17% 4.0 mph WNW6.4 kmh WNW 9.0 mph14.5 kmh 29.91 in1012.9 mb 0.00 in0.0 mm 0.00 in0.0 mm 0.00 in0.0 mm
05:59 PM 60.1°F15.6°C 15.2°F-9.3°C 17% 3.0 mph NW4.8 kmh NW 7.0 mph11.3 kmh 29.91 in1012.9 mb 0.00 in0.0 mm 0.00 in0.0 mm 0.00 in0.0 mm
06:04 PM 59.6°F15.3°C 14.8°F-9.6°C 17% 3.0 mph WNW4.8 kmh WNW 7.0 mph11.3 kmh 29.91 in1012.9 mb 0.00 in0.0 mm 0.00 in0.0 mm 0.00 in0.0 mm
06:09 PM 59.2°F15.1°C 15.7°F-9.1°C 18% 4.0 mph WNW6.4 kmh WNW 7.0 mph11.3 kmh 29.91 in1012.9 mb 0.00 in0.0 mm 0.00 in0.0 mm 0.00 in0.0 mm
06:14 PM 58.7°F14.8°C 17.7°F-7.9°C 20% 4.0 mph WNW6.4 kmh WNW 7.0 mph11.3 kmh 29.91 in1012.9 mb 0.00 in0.0 mm 0.00 in0.0 mm 0.00 in0.0 mm
06:19 PM 58.4°F14.7°C 19.7°F-6.8°C 22% 3.0 mph W4.8 kmh W 7.0 mph11.3 kmh 29.92 in1013.2 mb 0.00 in0.0 mm 0.00 in0.0 mm 0.00 in0.0 mm
06:24 PM 58.3°F14.6°C 19.6°F-6.9°C 22% 3.0 mph NW4.8 kmh NW 7.0 mph11.3 kmh 29.92 in1013.2 mb 0.00 in0.0 mm 0.00 in0.0 mm 0.00 in0.0 mm
06:29 PM 57.8°F14.3°C 19.2°F-7.1°C 22% 2.0 mph NW3.2 kmh NW 7.0 mph11.3 kmh 29.92 in1013.2 mb 0.00 in0.0 mm 0.00 in0.0 mm 0.00 in0.0 mm
06:34 PM 57.3°F14.1°C 18.8°F-7.3°C 22% 3.0 mph WNW4.8 kmh WNW 7.0 mph11.3 kmh 29.92 in1013.2 mb 0.00 in0.0 mm 0.00 in0.0 mm 0.00 in0.0 mm
06:39 PM 56.7°F13.7°C 19.3°F-7.1°C 23% 2.0 mph WNW3.2 kmh WNW 5.0 mph8.0 kmh 29.92 in1013.2 mb 0.00 in0.0 mm 0.00 in0.0 mm 0.00 in0.0 mm
06:44 PM 56.3°F13.5°C 20.0°F-6.7°C 24% 2.0 mph NW3.2 kmh NW 5.0 mph8.0 kmh 29.92 in1013.2 mb 0.00 in0.0 mm 0.00 in0.0 mm 0.00 in0.0 mm
06:49 PM 56.0°F13.3°C 19.7°F-6.8°C 24% 5.0 mph NW8.0 kmh NW 5.0 mph8.0 kmh 29.93 in1013.5 mb 0.00 in0.0 mm 0.00 in0.0 mm 0.00 in0.0 mm
06:54 PM 55.9°F13.3°C 20.6°F-6.3°C 25% 4.0 mph NW6.4 kmh NW 6.0 mph9.7 kmh 29.93 in1013.5 mb 0.00 in0.0 mm 0.00 in0.0 mm 0.00 in0.0 mm
06:59 PM 55.7°F13.2°C 20.4°F-6.4°C 25% 4.0 mph NW6.4 kmh NW 7.0 mph11.3 kmh 29.93 in1013.5 mb 0.00 in0.0 mm 0.00 in0.0 mm 0.00 in0.0 mm
07:04 PM 55.6°F13.1°C 20.3°F-6.5°C 25% 2.0 mph NW3.2 kmh NW 7.0 mph11.3 kmh 29.93 in1013.5 mb 0.00 in0.0 mm 0.00 in0.0 mm 0.00 in0.0 mm
07:09 PM 55.3°F12.9°C 20.1°F-6.6°C 25% 1.0 mph NW1.6 kmh NW 7.0 mph11.3 kmh 29.93 in1013.5 mb 0.00 in0.0 mm 0.00 in0.0 mm 0.00 in0.0 mm
07:14 PM 54.8°F12.7°C 19.7°F-6.8°C 25% 2.0 mph WNW3.2 kmh WNW 7.0 mph11.3 kmh 29.93 in1013.5 mb 0.00 in0.0 mm 0.00 in0.0 mm 0.00 in0.0 mm
07:19 PM 54.2°F12.3°C 20.1°F-6.6°C 26% 1.0 mph WNW1.6 kmh WNW 4.0 mph6.4 kmh 29.92 in1013.2 mb 0.00 in0.0 mm 0.00 in0.0 mm 0.00 in0.0 mm
07:24 PM 53.6°F12.0°C 20.4°F-6.4°C 27% 1.0 mph WNW1.6 kmh WNW 4.0 mph6.4 kmh 29.92 in1013.2 mb 0.00 in0.0 mm 0.00 in0.0 mm 0.00 in0.0 mm
07:29 PM 52.9°F11.6°C 19.8°F-6.8°C 27% 1.0 mph WNW1.6 kmh WNW 4.0 mph6.4 kmh 29.92 in1013.2 mb 0.00 in0.0 mm 0.00 in0.0 mm 0.00 in0.0 mm
07:34 PM 52.6°F11.4°C 20.4°F-6.4°C 28% 2.0 mph WNW3.2 kmh WNW 4.0 mph6.4 kmh 29.93 in1013.5 mb 0.00 in0.0 mm 0.00 in0.0 mm 0.00 in0.0 mm
07:39 PM 52.2°F11.2°C 20.1°F-6.6°C 28% Calm Calm -- 29.93 in1013.5 mb 0.00 in0.0 mm 0.00 in0.0 mm 0.00 in0.0 mm
07:44 PM 51.6°F10.9°C 19.6°F-6.9°C 28% Calm Calm -- 29.93 in1013.5 mb 0.00 in0.0 mm 0.00 in0.0 mm 0.00 in0.0 mm
07:49 PM 51.1°F10.6°C 19.1°F-7.2°C 28% 1.0 mph WNW1.6 kmh WNW 2.0 mph3.2 kmh 29.93 in1013.5 mb 0.00 in0.0 mm 0.00 in0.0 mm 0.00 in0.0 mm
07:54 PM 50.7°F10.4°C 19.6°F-6.9°C 29% 2.0 mph WNW3.2 kmh WNW 3.0 mph4.8 kmh 29.93 in1013.5 mb 0.00 in0.0 mm 0.00 in0.0 mm 0.00 in0.0 mm
07:59 PM 50.5°F10.3°C 18.6°F-7.4°C 28% Calm Calm 3.0 mph4.8 kmh 29.93 in1013.5 mb 0.00 in0.0 mm 0.00 in0.0 mm 0.00 in0.0 mm
08:04 PM 50.4°F10.2°C 19.4°F-7.0°C 29% 1.0 mph WNW1.6 kmh WNW 1.0 mph1.6 kmh 29.93 in1013.5 mb 0.00 in0.0 mm 0.00 in0.0 mm 0.00 in0.0 mm
08:09 PM 50.2°F10.1°C 19.2°F-7.1°C 29% 1.0 mph WNW1.6 kmh WNW 2.0 mph3.2 kmh 29.93 in1013.5 mb 0.00 in0.0 mm 0.00 in0.0 mm 0.00 in0.0 mm
08:14 PM 50.1°F10.1°C 19.9°F-6.7°C 30% Calm Calm 2.0 mph3.2 kmh 29.93 in1013.5 mb 0.00 in0.0 mm 0.00 in0.0 mm 0.00 in0.0 mm
08:19 PM 49.8°F9.9°C 19.6°F-6.9°C 30% 2.0 mph WNW3.2 kmh WNW 3.0 mph4.8 kmh 29.90 in1012.5 mb 0.00 in0.0 mm 0.00 in0.0 mm 0.00 in0.0 mm
08:24 PM 49.6°F9.8°C 20.2°F-6.6°C 31% 1.0 mph WNW1.6 kmh WNW 3.0 mph4.8 kmh 29.90 in1012.5 mb 0.00 in0.0 mm 0.00 in0.0 mm 0.00 in0.0 mm
08:29 PM 49.4°F9.7°C 20.0°F-6.7°C 31% Calm Calm 3.0 mph4.8 kmh 29.90 in1012.5 mb 0.00 in0.0 mm 0.00 in0.0 mm 0.00 in0.0 mm
08:34 PM 49.1°F9.5°C 19.8°F-6.8°C 31% 2.0 mph WNW3.2 kmh WNW 3.0 mph4.8 kmh 29.90 in1012.5 mb 0.00 in0.0 mm 0.00 in0.0 mm 0.00 in0.0 mm
08:39 PM 48.5°F9.2°C 20.0°F-6.7°C 32% 1.0 mph WNW1.6 kmh WNW 2.0 mph3.2 kmh 29.90 in1012.5 mb 0.00 in0.0 mm 0.00 in0.0 mm 0.00 in0.0 mm
08:44 PM 47.9°F8.8°C 20.2°F-6.6°C 33% 2.0 mph WNW3.2 kmh WNW 3.0 mph4.8 kmh 29.90 in1012.5 mb 0.00 in0.0 mm 0.00 in0.0 mm 0.00 in0.0 mm
08:49 PM 47.4°F8.6°C 19.8°F-6.8°C 33% 1.0 mph WNW1.6 kmh WNW 3.0 mph4.8 kmh 29.91 in1012.9 mb 0.00 in0.0 mm 0.00 in0.0 mm 0.00 in0.0 mm
08:54 PM 47.0°F8.3°C 20.1°F-6.6°C 34% 2.0 mph WNW3.2 kmh WNW 3.0 mph4.8 kmh 29.91 in1012.9 mb 0.00 in0.0 mm 0.00 in0.0 mm 0.00 in0.0 mm
08:59 PM 46.7°F8.2°C 19.8°F-6.8°C 34% 1.0 mph WNW1.6 kmh WNW 3.0 mph4.8 kmh 29.91 in1012.9 mb 0.00 in0.0 mm 0.00 in0.0 mm 0.00 in0.0 mm
09:04 PM 46.4°F8.0°C 20.3°F-6.5°C 35% 3.0 mph NW4.8 kmh NW 3.0 mph4.8 kmh 29.90 in1012.5 mb 0.00 in0.0 mm 0.00 in0.0 mm 0.00 in0.0 mm
09:09 PM 46.7°F8.2°C 20.5°F-6.4°C 35% 1.0 mph NE1.6 kmh NE 5.0 mph8.0 kmh 29.90 in1012.5 mb 0.00 in0.0 mm 0.00 in0.0 mm 0.00 in0.0 mm
09:14 PM 46.5°F8.1°C 20.3°F-6.5°C 35% 1.0 mph NE1.6 kmh NE 5.0 mph8.0 kmh 29.90 in1012.5 mb 0.00 in0.0 mm 0.00 in0.0 mm 0.00 in0.0 mm
09:19 PM 46.1°F7.8°C 20.6°F-6.3°C 36% 1.0 mph NE1.6 kmh NE 5.0 mph8.0 kmh 29.90 in1012.5 mb 0.00 in0.0 mm 0.00 in0.0 mm 0.00 in0.0 mm
09:24 PM 45.8°F7.7°C 20.4°F-6.4°C 36% 1.0 mph NE1.6 kmh NE 5.0 mph8.0 kmh 29.90 in1012.5 mb 0.00 in0.0 mm 0.00 in0.0 mm 0.00 in0.0 mm
09:29 PM 45.4°F7.4°C 20.0°F-6.7°C 36% 1.0 mph NE1.6 kmh NE 3.0 mph4.8 kmh 29.90 in1012.5 mb 0.00 in0.0 mm 0.00 in0.0 mm 0.00 in0.0 mm
09:34 PM 44.9°F7.2°C 20.2°F-6.6°C 37% 1.0 mph NE1.6 kmh NE 3.0 mph4.8 kmh 29.90 in1012.5 mb 0.00 in0.0 mm 0.00 in0.0 mm 0.00 in0.0 mm
09:39 PM 44.6°F7.0°C 20.6°F-6.3°C 38% 2.0 mph NE3.2 kmh NE 3.0 mph4.8 kmh 29.90 in1012.5 mb 0.00 in0.0 mm 0.00 in0.0 mm 0.00 in0.0 mm
09:44 PM 44.3°F6.8°C 20.3°F-6.5°C 38% 2.0 mph NE3.2 kmh NE 3.0 mph4.8 kmh 29.90 in1012.5 mb 0.00 in0.0 mm 0.00 in0.0 mm 0.00 in0.0 mm
09:49 PM 44.2°F6.8°C 20.2°F-6.6°C 38% Calm Calm 3.0 mph4.8 kmh 29.90 in1012.5 mb 0.00 in0.0 mm 0.00 in0.0 mm 0.00 in0.0 mm
09:54 PM 43.8°F6.6°C 20.5°F-6.4°C 39% 1.0 mph NE1.6 kmh NE 3.0 mph4.8 kmh 29.90 in1012.5 mb 0.00 in0.0 mm 0.00 in0.0 mm 0.00 in0.0 mm
09:59 PM 43.3°F6.3°C 20.0°F-6.7°C 39% 2.0 mph NE3.2 kmh NE 2.0 mph3.2 kmh 29.90 in1012.5 mb 0.00 in0.0 mm 0.00 in0.0 mm 0.00 in0.0 mm
10:04 PM 43.1°F6.2°C 20.4°F-6.4°C 40% 3.0 mph NE4.8 kmh NE 3.0 mph4.8 kmh 29.91 in1012.9 mb 0.00 in0.0 mm 0.00 in0.0 mm 0.00 in0.0 mm
10:09 PM 43.3°F6.3°C 20.6°F-6.3°C 40% 3.0 mph NE4.8 kmh NE 4.0 mph6.4 kmh 29.91 in1012.9 mb 0.00 in0.0 mm 0.00 in0.0 mm 0.00 in0.0 mm
10:14 PM 43.6°F6.4°C 20.9°F-6.2°C 40% 2.0 mph NE3.2 kmh NE 4.0 mph6.4 kmh 29.91 in1012.9 mb 0.00 in0.0 mm 0.00 in0.0 mm 0.00 in0.0 mm
10:19 PM 43.6°F6.4°C 20.9°F-6.2°C 40% 1.0 mph NE1.6 kmh NE 4.0 mph6.4 kmh 29.89 in1012.2 mb 0.00 in0.0 mm 0.00 in0.0 mm 0.00 in0.0 mm
10:24 PM 43.3°F6.3°C 20.6°F-6.3°C 40% 3.0 mph NE4.8 kmh NE 4.0 mph6.4 kmh 29.89 in1012.2 mb 0.00 in0.0 mm 0.00 in0.0 mm 0.00 in0.0 mm
10:29 PM 43.2°F6.2°C 21.1°F-6.1°C 41% 2.0 mph NE3.2 kmh NE 4.0 mph6.4 kmh 29.89 in1012.2 mb 0.00 in0.0 mm 0.00 in0.0 mm 0.00 in0.0 mm
10:34 PM 43.1°F6.2°C 21.0°F-6.1°C 41% 1.0 mph NE1.6 kmh NE 4.0 mph6.4 kmh 29.89 in1012.2 mb 0.00 in0.0 mm 0.00 in0.0 mm 0.00 in0.0 mm
10:39 PM 42.8°F6.0°C 20.7°F-6.3°C 41% 1.0 mph NE1.6 kmh NE 4.0 mph6.4 kmh 29.89 in1012.2 mb 0.00 in0.0 mm 0.00 in0.0 mm 0.00 in0.0 mm
10:44 PM 42.6°F5.9°C 21.1°F-6.1°C 42% 1.0 mph NE1.6 kmh NE 4.0 mph6.4 kmh 29.89 in1012.2 mb 0.00 in0.0 mm 0.00 in0.0 mm 0.00 in0.0 mm
10:49 PM 42.3°F5.7°C 20.9°F-6.2°C 42% 2.0 mph NE3.2 kmh NE 3.0 mph4.8 kmh 29.89 in1012.2 mb 0.00 in0.0 mm 0.00 in0.0 mm 0.00 in0.0 mm
10:54 PM 42.1°F5.6°C 20.7°F-6.3°C 42% Calm Calm 3.0 mph4.8 kmh 29.89 in1012.2 mb 0.00 in0.0 mm 0.00 in0.0 mm 0.00 in0.0 mm
10:59 PM 41.9°F5.5°C 21.6°F-5.8°C 44% 1.0 mph NE1.6 kmh NE 2.0 mph3.2 kmh 29.89 in1012.2 mb 0.00 in0.0 mm 0.00 in0.0 mm 0.00 in0.0 mm
11:04 PM 41.9°F5.5°C 21.6°F-5.8°C 44% 2.0 mph NE3.2 kmh NE 3.0 mph4.8 kmh 29.89 in1012.2 mb 0.00 in0.0 mm 0.00 in0.0 mm 0.00 in0.0 mm
11:09 PM 41.9°F5.5°C 21.6°F-5.8°C 44% 2.0 mph NE3.2 kmh NE 3.0 mph4.8 kmh 29.89 in1012.2 mb 0.00 in0.0 mm 0.00 in0.0 mm 0.00 in0.0 mm
11:14 PM 41.8°F5.4°C 21.5°F-5.8°C 44% 1.0 mph NE1.6 kmh NE 3.0 mph4.8 kmh 29.89 in1012.2 mb 0.00 in0.0 mm 0.00 in0.0 mm 0.00 in0.0 mm
11:19 PM 41.6°F5.3°C 21.3°F-5.9°C 44% 1.0 mph NE1.6 kmh NE 3.0 mph4.8 kmh 29.88 in1011.9 mb 0.00 in0.0 mm 0.00 in0.0 mm 0.00 in0.0 mm
11:24 PM 41.5°F5.3°C 21.2°F-6.0°C 44% 1.0 mph NE1.6 kmh NE 3.0 mph4.8 kmh 29.88 in1011.9 mb 0.00 in0.0 mm 0.00 in0.0 mm 0.00 in0.0 mm
11:29 PM 41.5°F5.3°C 21.2°F-6.0°C 44% 1.0 mph NE1.6 kmh NE 3.0 mph4.8 kmh 29.88 in1011.9 mb 0.00 in0.0 mm 0.00 in0.0 mm 0.00 in0.0 mm
11:34 PM 41.5°F5.3°C 21.2°F-6.0°C 44% 1.0 mph NE1.6 kmh NE 2.0 mph3.2 kmh 29.88 in1011.9 mb 0.00 in0.0 mm 0.00 in0.0 mm 0.00 in0.0 mm
11:39 PM 41.8°F5.4°C 21.5°F-5.8°C 44% 1.0 mph NE1.6 kmh NE 2.0 mph3.2 kmh 29.88 in1011.9 mb 0.00 in0.0 mm 0.00 in0.0 mm 0.00 in0.0 mm
11:44 PM 41.8°F5.4°C 21.5°F-5.8°C 44% 2.0 mph NE3.2 kmh NE 2.0 mph3.2 kmh 29.88 in1011.9 mb 0.00 in0.0 mm 0.00 in0.0 mm 0.00 in0.0 mm
11:49 PM 41.9°F5.5°C 21.6°F-5.8°C 44% 1.0 mph NE1.6 kmh NE 3.0 mph4.8 kmh 29.88 in1011.9 mb 0.00 in0.0 mm 0.00 in0.0 mm 0.00 in0.0 mm
11:54 PM 42.1°F5.6°C 21.8°F-5.7°C 44% 2.0 mph NE3.2 kmh NE 3.0 mph4.8 kmh 29.88 in1011.9 mb 0.00 in0.0 mm 0.00 in0.0 mm 0.00 in0.0 mm
11:59 PM 42.5°F5.8°C 22.1°F-5.5°C 44% 1.0 mph NE1.6 kmh NE 3.0 mph4.8 kmh 29.88 in1011.9 mb 0.00 in0.0 mm 0.00 in0.0 mm 0.00 in0.0 mm